DLH9PZ EDDF-EDDH
Flight info
| Callsign | DLH9PZ |
|---|---|
| Flight time | 0h 44m |
| Altitude | 33000 |
| Route | MARUN8M/25C MARUN Y150 TOLGI DCT SAS P605 NOLGO NOLGO6A |
| Aircraft | A321/M-SDE3FGHIRWY/LB1 |
Departure
| Time | 2026-05-05 08:24 |
|---|---|
| Airport | Frankfurt Main Airport (EDDF) |
Arrival
| Time | 2026-05-05 09:08 |
|---|---|
| Airport | Hamburg Helmut Schmidt Airport (EDDH) |
| Time | Latitude | Longitude | Altitude | Speed | Heading |
|---|---|---|---|---|---|
| 2026-05-05 07:50 | 50.04813 | 8.57185 | 356 ft | 0 kts | 115° |
| 2026-05-05 08:15 | 50.04820 | 8.57160 | 356 ft | 4 kts | 114° |
| 2026-05-05 08:16 | 50.04832 | 8.57123 | 356 ft | 2 kts | 118° |
| 2026-05-05 08:16 | 50.04842 | 8.57094 | 356 ft | 4 kts | 131° |
| 2026-05-05 08:16 | 50.04856 | 8.57076 | 356 ft | 1 kts | 156° |
| 2026-05-05 08:16 | 50.04834 | 8.57069 | 356 ft | 4 kts | 206° |
| 2026-05-05 08:17 | 50.04811 | 8.57047 | 356 ft | 4 kts | 210° |
| 2026-05-05 08:17 | 50.04794 | 8.57035 | 358 ft | 0 kts | 205° |
| 2026-05-05 08:19 | 50.04794 | 8.57034 | 358 ft | 1 kts | 205° |
| 2026-05-05 08:19 | 50.04785 | 8.57028 | 356 ft | 5 kts | 205° |
| 2026-05-05 08:19 | 50.04730 | 8.56989 | 356 ft | 10 kts | 205° |
| 2026-05-05 08:20 | 50.04665 | 8.56942 | 356 ft | 11 kts | 205° |
| 2026-05-05 08:20 | 50.04591 | 8.56905 | 356 ft | 12 kts | 193° |
| 2026-05-05 08:20 | 50.04521 | 8.56880 | 359 ft | 10 kts | 193° |
| 2026-05-05 08:20 | 50.04448 | 8.56854 | 366 ft | 12 kts | 190° |
| 2026-05-05 08:21 | 50.04367 | 8.56833 | 360 ft | 12 kts | 191° |
| 2026-05-05 08:21 | 50.04287 | 8.56847 | 361 ft | 12 kts | 134° |
| 2026-05-05 08:21 | 50.04294 | 8.56979 | 364 ft | 14 kts | 70° |
| 2026-05-05 08:21 | 50.04329 | 8.57122 | 361 ft | 14 kts | 70° |
| 2026-05-05 08:22 | 50.04364 | 8.57273 | 363 ft | 16 kts | 70° |
| 2026-05-05 08:22 | 50.04404 | 8.57437 | 364 ft | 14 kts | 69° |
| 2026-05-05 08:22 | 50.04428 | 8.57572 | 369 ft | 12 kts | 92° |
| 2026-05-05 08:22 | 50.04380 | 8.57658 | 366 ft | 11 kts | 156° |
| 2026-05-05 08:23 | 50.04304 | 8.57692 | 366 ft | 11 kts | 185° |
| 2026-05-05 08:23 | 50.04254 | 8.57609 | 366 ft | 13 kts | 248° |
| 2026-05-05 08:23 | 50.04176 | 8.57283 | 367 ft | 63 kts | 250° |
| 2026-05-05 08:23 | 50.03939 | 8.56291 | 354 ft | 131 kts | 250° |
| 2026-05-05 08:24 | 50.03558 | 8.54700 | 398 ft | 176 kts | 251° |
| 2026-05-05 08:24 | 50.03157 | 8.52922 | 1111 ft | 173 kts | 251° |
| 2026-05-05 08:24 | 50.02735 | 8.51163 | 1801 ft | 176 kts | 246° |
| 2026-05-05 08:24 | 50.01892 | 8.49706 | 2085 ft | 195 kts | 205° |
| 2026-05-05 08:25 | 50.00553 | 8.49047 | 2459 ft | 207 kts | 195° |
| 2026-05-05 08:25 | 49.99160 | 8.48436 | 3040 ft | 209 kts | 195° |
| 2026-05-05 08:25 | 49.97765 | 8.47816 | 3652 ft | 209 kts | 195° |
| 2026-05-05 08:25 | 49.96367 | 8.47188 | 4287 ft | 209 kts | 196° |
| 2026-05-05 08:26 | 49.94948 | 8.46546 | 4759 ft | 220 kts | 196° |
| 2026-05-05 08:26 | 49.93406 | 8.45839 | 5058 ft | 240 kts | 196° |
| 2026-05-05 08:26 | 49.91888 | 8.44747 | 5742 ft | 244 kts | 221° |
| 2026-05-05 08:26 | 49.90995 | 8.42530 | 6480 ft | 249 kts | 256° |
| 2026-05-05 08:27 | 49.91070 | 8.39831 | 7142 ft | 257 kts | 285° |
| 2026-05-05 08:27 | 49.91884 | 8.37350 | 7824 ft | 263 kts | 307° |
| 2026-05-05 08:27 | 49.93253 | 8.35377 | 8316 ft | 280 kts | 327° |
| 2026-05-05 08:27 | 49.95063 | 8.34078 | 8849 ft | 291 kts | 336° |
| 2026-05-05 08:28 | 49.96945 | 8.32875 | 9541 ft | 294 kts | 336° |
| 2026-05-05 08:28 | 49.98843 | 8.31639 | 10137 ft | 300 kts | 336° |
| 2026-05-05 08:28 | 50.00836 | 8.30331 | 10273 ft | 322 kts | 338° |
| 2026-05-05 08:28 | 50.03057 | 8.29329 | 10395 ft | 343 kts | 348° |
| 2026-05-05 08:29 | 50.05500 | 8.29018 | 10556 ft | 362 kts | 1° |
| 2026-05-05 08:29 | 50.08016 | 8.29533 | 10978 ft | 370 kts | 13° |
| 2026-05-05 08:29 | 50.10487 | 8.30745 | 11518 ft | 374 kts | 18° |
| 2026-05-05 08:30 | 50.15463 | 8.33366 | 12610 ft | 382 kts | 18° |
| 2026-05-05 08:30 | 50.17996 | 8.34690 | 13164 ft | 386 kts | 18° |
| 2026-05-05 08:30 | 50.20551 | 8.36026 | 13703 ft | 389 kts | 18° |
| 2026-05-05 08:30 | 50.23132 | 8.37375 | 14186 ft | 393 kts | 18° |
| 2026-05-05 08:31 | 50.25739 | 8.38740 | 14672 ft | 397 kts | 18° |
| 2026-05-05 08:31 | 50.28367 | 8.40119 | 15158 ft | 400 kts | 18° |
| 2026-05-05 08:31 | 50.31015 | 8.41519 | 15645 ft | 403 kts | 18° |
| 2026-05-05 08:31 | 50.33673 | 8.42956 | 16127 ft | 407 kts | 18° |
| 2026-05-05 08:32 | 50.36355 | 8.44425 | 16611 ft | 409 kts | 18° |
| 2026-05-05 08:32 | 50.39051 | 8.45908 | 17105 ft | 412 kts | 18° |
| 2026-05-05 08:32 | 50.41729 | 8.47382 | 17566 ft | 415 kts | 18° |
| 2026-05-05 08:32 | 50.44461 | 8.48883 | 18006 ft | 418 kts | 18° |
| 2026-05-05 08:33 | 50.47213 | 8.50391 | 18421 ft | 420 kts | 18° |
| 2026-05-05 08:33 | 50.49992 | 8.51846 | 18820 ft | 422 kts | 16° |
| 2026-05-05 08:33 | 50.52807 | 8.53217 | 19224 ft | 424 kts | 15° |
| 2026-05-05 08:33 | 50.55645 | 8.54544 | 19617 ft | 427 kts | 15° |
| 2026-05-05 08:34 | 50.58497 | 8.55863 | 20026 ft | 428 kts | 15° |
| 2026-05-05 08:34 | 50.61364 | 8.57198 | 20441 ft | 430 kts | 15° |
| 2026-05-05 08:34 | 50.64238 | 8.58552 | 20852 ft | 433 kts | 15° |
| 2026-05-05 08:34 | 50.67166 | 8.59951 | 21243 ft | 435 kts | 15° |
| 2026-05-05 08:35 | 50.70069 | 8.61348 | 21647 ft | 438 kts | 15° |
| 2026-05-05 08:35 | 50.72989 | 8.62758 | 22035 ft | 440 kts | 15° |
| 2026-05-05 08:35 | 50.75926 | 8.64184 | 22415 ft | 442 kts | 15° |
| 2026-05-05 08:35 | 50.78812 | 8.65897 | 22776 ft | 446 kts | 25° |
| 2026-05-05 08:36 | 50.81508 | 8.68354 | 23130 ft | 449 kts | 34° |
| 2026-05-05 08:36 | 50.83928 | 8.71495 | 23476 ft | 452 kts | 44° |
| 2026-05-05 08:36 | 50.86001 | 8.75244 | 23768 ft | 454 kts | 53° |
| 2026-05-05 08:36 | 50.87914 | 8.79241 | 24061 ft | 457 kts | 53° |
| 2026-05-05 08:37 | 50.89839 | 8.83267 | 24352 ft | 459 kts | 53° |
| 2026-05-05 08:37 | 50.91770 | 8.87309 | 24658 ft | 462 kts | 53° |
| 2026-05-05 08:37 | 50.93715 | 8.91381 | 24972 ft | 464 kts | 53° |
| 2026-05-05 08:37 | 50.95671 | 8.95476 | 25275 ft | 467 kts | 53° |
| 2026-05-05 08:38 | 50.97636 | 8.99591 | 25563 ft | 469 kts | 53° |
| 2026-05-05 08:38 | 50.99609 | 9.03732 | 25866 ft | 472 kts | 53° |
| 2026-05-05 08:38 | 51.01592 | 9.07904 | 26163 ft | 474 kts | 53° |
| 2026-05-05 08:38 | 51.03574 | 9.12094 | 26465 ft | 476 kts | 53° |
| 2026-05-05 08:39 | 51.05565 | 9.16307 | 26735 ft | 478 kts | 53° |
| 2026-05-05 08:39 | 51.07643 | 9.20451 | 26993 ft | 480 kts | 47° |
| 2026-05-05 08:39 | 51.10078 | 9.24094 | 27240 ft | 482 kts | 37° |
| 2026-05-05 08:39 | 51.12846 | 9.27094 | 27495 ft | 482 kts | 27° |
| 2026-05-05 08:40 | 51.15878 | 9.29379 | 27745 ft | 482 kts | 18° |
| 2026-05-05 08:40 | 51.19081 | 9.30906 | 27968 ft | 481 kts | 9° |
| 2026-05-05 08:40 | 51.22355 | 9.32034 | 28222 ft | 482 kts | 9° |
| 2026-05-05 08:40 | 51.25638 | 9.33173 | 28475 ft | 483 kts | 9° |
| 2026-05-05 08:41 | 51.28928 | 9.34317 | 28686 ft | 485 kts | 9° |
| 2026-05-05 08:41 | 51.32221 | 9.35466 | 28999 ft | 484 kts | 9° |
| 2026-05-05 08:41 | 51.35470 | 9.36599 | 29298 ft | 484 kts | 9° |
| 2026-05-05 08:41 | 51.38760 | 9.37745 | 29620 ft | 483 kts | 9° |
| 2026-05-05 08:42 | 51.42044 | 9.38889 | 29919 ft | 483 kts | 8° |
| 2026-05-05 08:42 | 51.45323 | 9.40032 | 30214 ft | 482 kts | 8° |
| 2026-05-05 08:42 | 51.48603 | 9.41183 | 30492 ft | 481 kts | 8° |
| 2026-05-05 08:42 | 51.51914 | 9.42351 | 30764 ft | 481 kts | 8° |
| 2026-05-05 08:43 | 51.55138 | 9.43490 | 30891 ft | 479 kts | 8° |
| 2026-05-05 08:43 | 51.61574 | 9.45764 | 30908 ft | 471 kts | 8° |
| 2026-05-05 08:44 | 51.67964 | 9.48007 | 30915 ft | 470 kts | 7° |
| 2026-05-05 08:44 | 51.74343 | 9.50243 | 30893 ft | 469 kts | 7° |
| 2026-05-05 08:45 | 51.80713 | 9.52516 | 30892 ft | 470 kts | 9° |
| 2026-05-05 08:45 | 51.86827 | 9.56491 | 30893 ft | 478 kts | 23° |
| 2026-05-05 08:46 | 51.92742 | 9.61415 | 30901 ft | 478 kts | 23° |
| 2026-05-05 08:46 | 51.98674 | 9.66324 | 30898 ft | 479 kts | 23° |
| 2026-05-05 08:47 | 52.04611 | 9.71258 | 30892 ft | 479 kts | 23° |
| 2026-05-05 08:47 | 52.10544 | 9.76211 | 30908 ft | 480 kts | 23° |
| 2026-05-05 08:48 | 52.16490 | 9.81191 | 30623 ft | 482 kts | 23° |
| 2026-05-05 08:48 | 52.19471 | 9.83695 | 30065 ft | 482 kts | 23° |
| 2026-05-05 08:48 | 52.22452 | 9.86204 | 29462 ft | 482 kts | 23° |
| 2026-05-05 08:48 | 52.25493 | 9.88442 | 28844 ft | 478 kts | 15° |
| 2026-05-05 08:49 | 52.28655 | 9.90005 | 28238 ft | 474 kts | 10° |
| 2026-05-05 08:49 | 52.31845 | 9.91390 | 27644 ft | 474 kts | 10° |
| 2026-05-05 08:49 | 52.35013 | 9.92775 | 27094 ft | 469 kts | 11° |
| 2026-05-05 08:49 | 52.38153 | 9.94158 | 26541 ft | 464 kts | 11° |
| 2026-05-05 08:50 | 52.41254 | 9.95532 | 26032 ft | 459 kts | 11° |
| 2026-05-05 08:50 | 52.44324 | 9.96891 | 25539 ft | 455 kts | 11° |
| 2026-05-05 08:50 | 52.47366 | 9.98236 | 25044 ft | 451 kts | 12° |
| 2026-05-05 08:50 | 52.50386 | 9.99575 | 24560 ft | 448 kts | 12° |
| 2026-05-05 08:51 | 52.53380 | 10.00904 | 24086 ft | 444 kts | 12° |
| 2026-05-05 08:51 | 52.56355 | 10.02223 | 23617 ft | 441 kts | 12° |
| 2026-05-05 08:51 | 52.59306 | 10.03534 | 23104 ft | 437 kts | 12° |
| 2026-05-05 08:51 | 52.62210 | 10.04832 | 22586 ft | 428 kts | 13° |
| 2026-05-05 08:52 | 52.65058 | 10.06109 | 22104 ft | 420 kts | 13° |
| 2026-05-05 08:52 | 52.67855 | 10.07359 | 21625 ft | 413 kts | 12° |
| 2026-05-05 08:52 | 52.70611 | 10.08589 | 21159 ft | 407 kts | 12° |
| 2026-05-05 08:52 | 52.73318 | 10.09802 | 20694 ft | 399 kts | 12° |
| 2026-05-05 08:53 | 52.75977 | 10.10991 | 20241 ft | 393 kts | 11° |
| 2026-05-05 08:53 | 52.78642 | 10.11744 | 19796 ft | 385 kts | 2° |
| 2026-05-05 08:53 | 52.81302 | 10.11915 | 19342 ft | 380 kts | 358° |
| 2026-05-05 08:53 | 52.83936 | 10.11995 | 18893 ft | 377 kts | 358° |
| 2026-05-05 08:54 | 52.86539 | 10.12077 | 18443 ft | 372 kts | 359° |
| 2026-05-05 08:54 | 52.89116 | 10.12159 | 17931 ft | 368 kts | 359° |
| 2026-05-05 08:54 | 52.91669 | 10.12241 | 17328 ft | 366 kts | 359° |
| 2026-05-05 08:54 | 52.94211 | 10.12323 | 16722 ft | 365 kts | 359° |
| 2026-05-05 08:55 | 52.96743 | 10.12405 | 16130 ft | 363 kts | 359° |
| 2026-05-05 08:55 | 52.99261 | 10.12487 | 15549 ft | 361 kts | 359° |
| 2026-05-05 08:55 | 53.01767 | 10.12568 | 14993 ft | 359 kts | 359° |
| 2026-05-05 08:55 | 53.04245 | 10.12648 | 14431 ft | 353 kts | 359° |
| 2026-05-05 08:56 | 53.06680 | 10.12732 | 13879 ft | 347 kts | 359° |
| 2026-05-05 08:56 | 53.09092 | 10.12815 | 13280 ft | 347 kts | 359° |
| 2026-05-05 08:56 | 53.11506 | 10.12896 | 12680 ft | 347 kts | 359° |
| 2026-05-05 08:56 | 53.13915 | 10.12975 | 12081 ft | 343 kts | 360° |
| 2026-05-05 08:57 | 53.16225 | 10.12852 | 11491 ft | 322 kts | 347° |
| 2026-05-05 08:57 | 53.18210 | 10.11497 | 11014 ft | 298 kts | 321° |
| 2026-05-05 08:57 | 53.19636 | 10.09069 | 10623 ft | 292 kts | 306° |
| 2026-05-05 08:57 | 53.20858 | 10.06386 | 10242 ft | 289 kts | 304° |
| 2026-05-05 08:58 | 53.22045 | 10.03690 | 9850 ft | 287 kts | 304° |
| 2026-05-05 08:58 | 53.23226 | 10.01013 | 9440 ft | 285 kts | 304° |
| 2026-05-05 08:58 | 53.24397 | 9.98369 | 9071 ft | 282 kts | 304° |
| 2026-05-05 08:58 | 53.25551 | 9.95748 | 8696 ft | 279 kts | 304° |
| 2026-05-05 08:59 | 53.26687 | 9.93133 | 8342 ft | 277 kts | 304° |
| 2026-05-05 08:59 | 53.27815 | 9.90537 | 7985 ft | 275 kts | 304° |
| 2026-05-05 08:59 | 53.28925 | 9.87976 | 7660 ft | 268 kts | 304° |
| 2026-05-05 08:59 | 53.30009 | 9.85478 | 7336 ft | 262 kts | 304° |
| 2026-05-05 09:00 | 53.31070 | 9.83061 | 7012 ft | 253 kts | 304° |
| 2026-05-05 09:00 | 53.32098 | 9.80725 | 6707 ft | 244 kts | 304° |
| 2026-05-05 09:00 | 53.33123 | 9.78525 | 6404 ft | 238 kts | 313° |
| 2026-05-05 09:00 | 53.33966 | 9.77356 | 6194 ft | 238 kts | 322° |
| 2026-05-05 09:01 | 53.35318 | 9.75784 | 5854 ft | 236 kts | 324° |
| 2026-05-05 09:01 | 53.36666 | 9.74239 | 5517 ft | 234 kts | 324° |
| 2026-05-05 09:01 | 53.38006 | 9.72709 | 5193 ft | 232 kts | 324° |
| 2026-05-05 09:01 | 53.39333 | 9.71187 | 4878 ft | 231 kts | 324° |
| 2026-05-05 09:02 | 53.40651 | 9.69669 | 4543 ft | 229 kts | 324° |
| 2026-05-05 09:02 | 53.41963 | 9.68167 | 4206 ft | 228 kts | 325° |
| 2026-05-05 09:02 | 53.43410 | 9.67150 | 3865 ft | 228 kts | 353° |
| 2026-05-05 09:02 | 53.44987 | 9.67416 | 3568 ft | 229 kts | 12° |
| 2026-05-05 09:03 | 53.46532 | 9.68049 | 3237 ft | 227 kts | 14° |
| 2026-05-05 09:03 | 53.47969 | 9.68992 | 3034 ft | 216 kts | 34° |
| 2026-05-05 09:03 | 53.49011 | 9.70620 | 3040 ft | 196 kts | 50° |
| 2026-05-05 09:03 | 53.49868 | 9.72338 | 3052 ft | 190 kts | 50° |
| 2026-05-05 09:04 | 53.50709 | 9.74018 | 3042 ft | 187 kts | 50° |
| 2026-05-05 09:04 | 53.51542 | 9.75686 | 3037 ft | 186 kts | 50° |
| 2026-05-05 09:04 | 53.52372 | 9.77348 | 2986 ft | 186 kts | 50° |
| 2026-05-05 09:04 | 53.53198 | 9.79006 | 2797 ft | 184 kts | 50° |
| 2026-05-05 09:05 | 53.54014 | 9.80643 | 2568 ft | 181 kts | 50° |
| 2026-05-05 09:05 | 53.54817 | 9.82254 | 2329 ft | 178 kts | 51° |
| 2026-05-05 09:05 | 53.55607 | 9.83841 | 2086 ft | 176 kts | 51° |
| 2026-05-05 09:05 | 53.56384 | 9.85404 | 1850 ft | 170 kts | 51° |
| 2026-05-05 09:06 | 53.57098 | 9.86838 | 1616 ft | 151 kts | 51° |
| 2026-05-05 09:06 | 53.57746 | 9.88144 | 1421 ft | 142 kts | 50° |
| 2026-05-05 09:06 | 53.58368 | 9.89396 | 1229 ft | 138 kts | 50° |
| 2026-05-05 09:06 | 53.58979 | 9.90628 | 1015 ft | 137 kts | 50° |
| 2026-05-05 09:07 | 53.59594 | 9.91858 | 824 ft | 137 kts | 49° |
| 2026-05-05 09:07 | 53.60209 | 9.93083 | 642 ft | 137 kts | 48° |
| 2026-05-05 09:07 | 53.60822 | 9.94314 | 407 ft | 138 kts | 50° |
| 2026-05-05 09:07 | 53.61441 | 9.95552 | 241 ft | 138 kts | 50° |
| 2026-05-05 09:08 | 53.62050 | 9.96807 | 86 ft | 138 kts | 50° |
| 2026-05-05 09:08 | 53.62636 | 9.98008 | 42 ft | 117 kts | 50° |
| 2026-05-05 09:08 | 53.63048 | 9.98844 | 46 ft | 68 kts | 50° |
| 2026-05-05 09:08 | 53.63270 | 9.99309 | 47 ft | 34 kts | 61° |
| 2026-05-05 09:09 | 53.63284 | 9.99600 | 46 ft | 15 kts | 99° |
| 2026-05-05 09:09 | 53.63279 | 9.99651 | 48 ft | 0 kts | 99° |
| 2026-05-05 09:09 | 53.63279 | 9.99652 | 48 ft | 1 kts | 99° |
| 2026-05-05 09:09 | 53.63275 | 9.99692 | 48 ft | 9 kts | 96° |
| 2026-05-05 09:10 | 53.63318 | 9.99840 | 48 ft | 17 kts | 50° |
| 2026-05-05 09:10 | 53.63393 | 9.99990 | 48 ft | 15 kts | 49° |
| 2026-05-05 09:10 | 53.63412 | 10.00143 | 47 ft | 15 kts | 140° |
| 2026-05-05 09:10 | 53.63305 | 10.00170 | 48 ft | 16 kts | 176° |
| 2026-05-05 09:11 | 53.63205 | 10.00183 | 48 ft | 13 kts | 168° |
| 2026-05-05 09:11 | 53.63164 | 10.00269 | 48 ft | 9 kts | 92° |
| 2026-05-05 09:11 | 53.63167 | 10.00343 | 48 ft | 4 kts | 86° |
| 2026-05-05 09:11 | 53.63168 | 10.00373 | 48 ft | 1 kts | 87° |
| 2026-05-05 09:12 | 53.63168 | 10.00374 | 48 ft | 0 kts | 87° |